sensor_id;sensor_type;location;lat;lon;timestamp;pressure;altitude;pressure_sealevel;temperature;humidity
9525;BME280;15940;48.734;9.112;2023-05-29T00:01:15;96564.38;;;13.79;61.60
9525;BME280;15940;48.734;9.112;2023-05-29T00:03:44;96560.91;;;13.78;62.26
9525;BME280;15940;48.734;9.112;2023-05-29T00:06:11;96559.22;;;13.75;62.51
9525;BME280;15940;48.734;9.112;2023-05-29T00:08:38;96561.25;;;13.69;62.68
9525;BME280;15940;48.734;9.112;2023-05-29T00:11:05;96560.03;;;13.64;63.26
9525;BME280;15940;48.734;9.112;2023-05-29T00:13:31;96566.50;;;13.61;63.25
9525;BME280;15940;48.734;9.112;2023-05-29T00:15:58;96560.38;;;13.55;63.86
9525;BME280;15940;48.734;9.112;2023-05-29T00:18:27;96561.59;;;13.54;64.88
9525;BME280;15940;48.734;9.112;2023-05-29T00:20:54;96559.16;;;13.51;64.33
9525;BME280;15940;48.734;9.112;2023-05-29T00:23:21;96557.44;;;13.48;63.26
9525;BME280;15940;48.734;9.112;2023-05-29T00:25:48;96551.53;;;13.43;62.75
9525;BME280;15940;48.734;9.112;2023-05-29T00:28:15;96551.06;;;13.39;62.58
9525;BME280;15940;48.734;9.112;2023-05-29T00:30:42;96559.47;;;13.36;62.60
9525;BME280;15940;48.734;9.112;2023-05-29T00:33:09;96549.38;;;13.31;62.27
9525;BME280;15940;48.734;9.112;2023-05-29T00:35:38;96542.97;;;13.28;62.35
9525;BME280;15940;48.734;9.112;2023-05-29T00:38:05;96542.72;;;13.26;62.49
9525;BME280;15940;48.734;9.112;2023-05-29T00:40:32;96543.22;;;13.25;62.77
9525;BME280;15940;48.734;9.112;2023-05-29T00:42:59;96545.72;;;13.23;62.71
9525;BME280;15940;48.734;9.112;2023-05-29T00:45:26;96540.28;;;13.23;63.09
9525;BME280;15940;48.734;9.112;2023-05-29T00:47:53;96540.56;;;13.19;63.76
9525;BME280;15940;48.734;9.112;2023-05-29T00:52:43;96530.94;;;13.12;65.19
9525;BME280;15940;48.734;9.112;2023-05-29T00:55:11;96539.09;;;13.12;64.59
9525;BME280;15940;48.734;9.112;2023-05-29T00:57:39;96530.47;;;13.08;64.46
9525;BME280;15940;48.734;9.112;2023-05-29T01:00:07;96541.81;;;13.07;65.73
9525;BME280;15940;48.734;9.112;2023-05-29T01:02:40;96532.47;;;13.02;65.90
9525;BME280;15940;48.734;9.112;2023-05-29T01:05:09;96532.00;;;12.98;65.76
9525;BME280;15940;48.734;9.112;2023-05-29T01:07:37;96542.16;;;12.92;65.22
9525;BME280;15940;48.734;9.112;2023-05-29T01:10:07;96532.03;;;12.87;64.87
9525;BME280;15940;48.734;9.112;2023-05-29T01:12:40;96533.06;;;12.84;65.30
9525;BME280;15940;48.734;9.112;2023-05-29T01:15:33;96537.03;;;12.77;64.67
9525;BME280;15940;48.734;9.112;2023-05-29T01:18:21;96535.56;;;12.76;68.39
9525;BME280;15940;48.734;9.112;2023-05-29T01:23:47;96532.84;;;12.76;68.23
9525;BME280;15940;48.734;9.112;2023-05-29T01:26:57;96533.63;;;12.71;67.89
9525;BME280;15940;48.734;9.112;2023-05-29T01:29:29;96529.66;;;12.72;69.58
9525;BME280;15940;48.734;9.112;2023-05-29T01:31:58;96519.75;;;12.75;68.96
9525;BME280;15940;48.734;9.112;2023-05-29T01:34:27;96521.28;;;12.70;68.07
9525;BME280;15940;48.734;9.112;2023-05-29T01:36:54;96526.94;;;12.67;67.92
9525;BME280;15940;48.734;9.112;2023-05-29T01:39:22;96525.50;;;12.60;67.79
9525;BME280;15940;48.734;9.112;2023-05-29T01:41:50;96530.00;;;12.52;67.54
9525;BME280;15940;48.734;9.112;2023-05-29T01:46:33;96528.06;;;12.41;68.00
9525;BME280;15940;48.734;9.112;2023-05-29T01:49:01;96534.97;;;12.37;67.43
9525;BME280;15940;48.734;9.112;2023-05-29T01:51:28;96536.22;;;12.30;67.42
9525;BME280;15940;48.734;9.112;2023-05-29T01:53:58;96535.50;;;12.24;67.12
9525;BME280;15940;48.734;9.112;2023-05-29T01:56:26;96534.50;;;12.21;67.06
9525;BME280;15940;48.734;9.112;2023-05-29T01:58:54;96535.28;;;12.16;68.08
9525;BME280;15940;48.734;9.112;2023-05-29T02:01:22;96541.44;;;12.17;68.78
9525;BME280;15940;48.734;9.112;2023-05-29T02:03:51;96540.94;;;12.13;68.40
9525;BME280;15940;48.734;9.112;2023-05-29T02:06:18;96547.59;;;12.12;68.90
9525;BME280;15940;48.734;9.112;2023-05-29T02:08:45;96544.41;;;12.08;68.56
9525;BME280;15940;48.734;9.112;2023-05-29T02:11:13;96539.72;;;12.02;68.69
9525;BME280;15940;48.734;9.112;2023-05-29T02:13:41;96540.97;;;12.07;69.84
9525;BME280;15940;48.734;9.112;2023-05-29T02:16:09;96538.00;;;12.05;70.19
9525;BME280;15940;48.734;9.112;2023-05-29T02:18:35;96534.06;;;12.00;69.24
9525;BME280;15940;48.734;9.112;2023-05-29T02:21:04;96528.88;;;11.97;68.66
9525;BME280;15940;48.734;9.112;2023-05-29T02:23:31;96531.59;;;11.91;68.46
9525;BME280;15940;48.734;9.112;2023-05-29T02:25:58;96529.16;;;11.88;69.05
9525;BME280;15940;48.734;9.112;2023-05-29T02:28:25;96528.38;;;11.93;70.25
9525;BME280;15940;48.734;9.112;2023-05-29T02:30:52;96527.88;;;12.00;70.26
9525;BME280;15940;48.734;9.112;2023-05-29T02:33:19;96530.38;;;12.04;70.53
9525;BME280;15940;48.734;9.112;2023-05-29T02:35:46;96533.09;;;12.04;69.99
9525;BME280;15940;48.734;9.112;2023-05-29T02:38:15;96526.41;;;11.99;69.86
9525;BME280;15940;48.734;9.112;2023-05-29T02:40:41;96528.16;;;11.91;69.60
9525;BME280;15940;48.734;9.112;2023-05-29T02:43:12;96521.97;;;11.90;70.36
9525;BME280;15940;48.734;9.112;2023-05-29T02:45:39;96529.13;;;11.82;70.53
9525;BME280;15940;48.734;9.112;2023-05-29T02:48:06;96532.34;;;11.81;70.80
9525;BME280;15940;48.734;9.112;2023-05-29T02:50:33;96532.09;;;11.79;71.08
9525;BME280;15940;48.734;9.112;2023-05-29T02:53:00;96527.66;;;11.81;71.05
9525;BME280;15940;48.734;9.112;2023-05-29T02:55:28;96523.22;;;11.84;70.99
9525;BME280;15940;48.734;9.112;2023-05-29T02:57:57;96520.00;;;11.91;70.83
9525;BME280;15940;48.734;9.112;2023-05-29T03:00:25;96515.56;;;11.93;71.28
9525;BME280;15940;48.734;9.112;2023-05-29T03:02:54;96512.59;;;11.97;71.34
9525;BME280;15940;48.734;9.112;2023-05-29T03:05:21;96513.59;;;11.94;71.16
9525;BME280;15940;48.734;9.112;2023-05-29T03:07:48;96512.09;;;11.98;71.05
9525;BME280;15940;48.734;9.112;2023-05-29T03:10:15;96508.91;;;11.94;70.92
9525;BME280;15940;48.734;9.112;2023-05-29T03:12:44;96508.41;;;11.96;70.90
9525;BME280;15940;48.734;9.112;2023-05-29T03:15:11;96511.59;;;12.00;70.98
9525;BME280;15940;48.734;9.112;2023-05-29T03:17:38;96514.56;;;11.96;70.34
9525;BME280;15940;48.734;9.112;2023-05-29T03:20:06;96513.34;;;11.97;71.15
9525;BME280;15940;48.734;9.112;2023-05-29T03:22:34;96511.38;;;12.04;71.10
9525;BME280;15940;48.734;9.112;2023-05-29T03:25:02;96513.56;;;12.11;70.94
9525;BME280;15940;48.734;9.112;2023-05-29T03:27:29;96520.25;;;12.04;70.84
9525;BME280;15940;48.734;9.112;2023-05-29T03:29:58;96519.75;;;12.00;70.68
9525;BME280;15940;48.734;9.112;2023-05-29T03:32:25;96521.47;;;11.97;71.07
9525;BME280;15940;48.734;9.112;2023-05-29T03:34:52;96515.09;;;11.95;71.44
9525;BME280;15940;48.734;9.112;2023-05-29T03:37:19;96518.28;;;11.99;71.32
9525;BME280;15940;48.734;9.112;2023-05-29T03:39:46;96520.97;;;11.99;71.20
9525;BME280;15940;48.734;9.112;2023-05-29T03:42:13;96509.38;;;11.98;70.57
9525;BME280;15940;48.734;9.112;2023-05-29T03:44:41;96517.03;;;12.00;70.94
9525;BME280;15940;48.734;9.112;2023-05-29T03:47:09;96514.56;;;12.02;71.19
9525;BME280;15940;48.734;9.112;2023-05-29T03:49:36;96513.81;;;12.01;71.40
9525;BME280;15940;48.734;9.112;2023-05-29T03:52:03;96514.31;;;12.00;70.74
9525;BME280;15940;48.734;9.112;2023-05-29T03:54:30;96518.75;;;12.03;71.54
9525;BME280;15940;48.734;9.112;2023-05-29T03:56:57;96518.28;;;11.99;70.75
9525;BME280;15940;48.734;9.112;2023-05-29T03:59:24;96521.75;;;11.94;70.67
9525;BME280;15940;48.734;9.112;2023-05-29T04:01:51;96527.91;;;11.89;70.73
9525;BME280;15940;48.734;9.112;2023-05-29T04:04:19;96522.47;;;11.89;70.94
9525;BME280;15940;48.734;9.112;2023-05-29T04:06:46;96528.16;;;11.91;70.92
9525;BME280;15940;48.734;9.112;2023-05-29T04:09:13;96534.56;;;11.99;71.33
9525;BME280;15940;48.734;9.112;2023-05-29T04:11:40;96532.31;;;12.03;71.13
9525;BME280;15940;48.734;9.112;2023-05-29T04:14:07;96536.28;;;12.02;71.14
9525;BME280;15940;48.734;9.112;2023-05-29T04:16:34;96548.13;;;12.05;71.21
9525;BME280;15940;48.734;9.112;2023-05-29T04:19:01;96552.78;;;12.10;70.95
9525;BME280;15940;48.734;9.112;2023-05-29T04:21:29;96551.06;;;12.12;70.87
9525;BME280;15940;48.734;9.112;2023-05-29T04:23:58;96554.50;;;12.18;71.08
9525;BME280;15940;48.734;9.112;2023-05-29T04:26:25;96552.53;;;12.24;70.59
9525;BME280;15940;48.734;9.112;2023-05-29T04:28:53;96555.22;;;12.30;70.62
9525;BME280;15940;48.734;9.112;2023-05-29T04:31:23;96560.88;;;12.38;70.59
9525;BME280;15940;48.734;9.112;2023-05-29T04:33:51;96566.31;;;12.43;70.01
9525;BME280;15940;48.734;9.112;2023-05-29T04:36:22;96570.75;;;12.52;70.03
9525;BME280;15940;48.734;9.112;2023-05-29T04:38:52;96573.44;;;12.57;69.85
9525;BME280;15940;48.734;9.112;2023-05-29T04:41:19;96578.59;;;12.67;69.92
9525;BME280;15940;48.734;9.112;2023-05-29T04:43:49;96572.91;;;12.70;69.38
9525;BME280;15940;48.734;9.112;2023-05-29T04:46:17;96575.59;;;12.76;69.35
9525;BME280;15940;48.734;9.112;2023-05-29T04:48:44;96579.03;;;12.82;69.54
9525;BME280;15940;48.734;9.112;2023-05-29T04:51:12;96586.41;;;12.87;69.80
9525;BME280;15940;48.734;9.112;2023-05-29T04:53:39;96585.16;;;12.94;69.81
9525;BME280;15940;48.734;9.112;2023-05-29T04:56:08;96583.59;;;13.09;69.93
9525;BME280;15940;48.734;9.112;2023-05-29T04:58:35;96586.28;;;13.15;70.00
9525;BME280;15940;48.734;9.112;2023-05-29T05:01:02;96580.59;;;13.19;69.50
9525;BME280;15940;48.734;9.112;2023-05-29T05:03:29;96588.50;;;13.22;69.07
9525;BME280;15940;48.734;9.112;2023-05-29T05:05:59;96590.19;;;13.31;68.48
9525;BME280;15940;48.734;9.112;2023-05-29T05:08:28;96596.59;;;13.33;68.26
9525;BME280;15940;48.734;9.112;2023-05-29T05:10:55;96585.94;;;13.41;68.53
9525;BME280;15940;48.734;9.112;2023-05-29T05:13:23;96592.59;;;13.46;68.36
9525;BME280;15940;48.734;9.112;2023-05-29T05:15:50;96594.28;;;13.49;68.01
9525;BME280;15940;48.734;9.112;2023-05-29T05:18:17;96592.09;;;13.47;66.92
9525;BME280;15940;48.734;9.112;2023-05-29T05:20:44;96597.75;;;13.49;67.20
9525;BME280;15940;48.734;9.112;2023-05-29T05:23:11;96594.25;;;13.54;67.37
9525;BME280;15940;48.734;9.112;2023-05-29T05:25:38;96601.19;;;13.55;67.44
9525;BME280;15940;48.734;9.112;2023-05-29T05:28:05;96597.94;;;13.57;65.52
9525;BME280;15940;48.734;9.112;2023-05-29T05:30:33;96600.63;;;13.62;66.54
9525;BME280;15940;48.734;9.112;2023-05-29T05:33:00;96602.84;;;13.64;67.39
9525;BME280;15940;48.734;9.112;2023-05-29T05:35:28;96598.09;;;13.70;67.08
9525;BME280;15940;48.734;9.112;2023-05-29T05:37:54;96598.81;;;13.76;66.91
9525;BME280;15940;48.734;9.112;2023-05-29T05:40:23;96600.75;;;13.81;66.66
9525;BME280;15940;48.734;9.112;2023-05-29T05:42:50;96607.41;;;13.86;66.81
9525;BME280;15940;48.734;9.112;2023-05-29T05:45:17;96595.19;;;13.92;66.60
9525;BME280;15940;48.734;9.112;2023-05-29T05:47:46;96603.03;;;14.01;66.07
9525;BME280;15940;48.734;9.112;2023-05-29T05:50:13;96598.31;;;14.08;66.12
9525;BME280;15940;48.734;9.112;2023-05-29T05:52:40;96607.41;;;14.16;65.30
9525;BME280;15940;48.734;9.112;2023-05-29T05:55:08;96610.81;;;14.22;64.27
9525;BME280;15940;48.734;9.112;2023-05-29T05:57:35;96612.69;;;14.33;64.25
9525;BME280;15940;48.734;9.112;2023-05-29T06:00:02;96613.63;;;14.41;64.51
9525;BME280;15940;48.734;9.112;2023-05-29T06:02:31;96610.81;;;14.52;64.33
9525;BME280;15940;48.734;9.112;2023-05-29T06:05:00;96624.81;;;14.62;64.17
9525;BME280;15940;48.734;9.112;2023-05-29T06:07:26;96620.28;;;14.70;63.96
9525;BME280;15940;48.734;9.112;2023-05-29T06:09:54;96625.66;;;14.75;63.48
9525;BME280;15940;48.734;9.112;2023-05-29T06:12:21;96632.25;;;14.85;63.53
9525;BME280;15940;48.734;9.112;2023-05-29T06:14:48;96628.44;;;14.94;62.65
9525;BME280;15940;48.734;9.112;2023-05-29T06:17:15;96631.53;;;15.04;63.07
9525;BME280;15940;48.734;9.112;2023-05-29T06:19:42;96633.16;;;15.12;63.73
9525;BME280;15940;48.734;9.112;2023-05-29T06:22:10;96631.03;;;15.24;63.80
9525;BME280;15940;48.734;9.112;2023-05-29T06:24:37;96632.88;;;15.35;64.73
9525;BME280;15940;48.734;9.112;2023-05-29T06:27:04;96635.03;;;15.42;65.37
9525;BME280;15940;48.734;9.112;2023-05-29T06:29:32;96637.91;;;15.50;63.53
9525;BME280;15940;48.734;9.112;2023-05-29T06:31:59;96645.44;;;15.62;63.49
9525;BME280;15940;48.734;9.112;2023-05-29T06:34:26;96645.59;;;15.70;63.26
9525;BME280;15940;48.734;9.112;2023-05-29T06:36:53;96645.56;;;15.89;62.47
9525;BME280;15940;48.734;9.112;2023-05-29T06:39:22;96657.94;;;16.09;61.05
9525;BME280;15940;48.734;9.112;2023-05-29T06:41:49;96659.78;;;16.33;61.89
9525;BME280;15940;48.734;9.112;2023-05-29T06:44:16;96667.00;;;16.62;61.11
9525;BME280;15940;48.734;9.112;2023-05-29T06:46:43;96659.69;;;16.97;59.74
9525;BME280;15940;48.734;9.112;2023-05-29T06:49:10;96656.47;;;17.32;58.91
9525;BME280;15940;48.734;9.112;2023-05-29T06:51:37;96663.38;;;17.60;57.88
9525;BME280;15940;48.734;9.112;2023-05-29T06:54:04;96666.41;;;17.83;56.64
9525;BME280;15940;48.734;9.112;2023-05-29T06:56:32;96659.00;;;18.12;57.13
9525;BME280;15940;48.734;9.112;2023-05-29T06:58:59;96655.97;;;18.23;54.76
9525;BME280;15940;48.734;9.112;2023-05-29T07:01:26;96665.41;;;18.35;55.08
9525;BME280;15940;48.734;9.112;2023-05-29T07:03:53;96664.34;;;18.38;54.07
9525;BME280;15940;48.734;9.112;2023-05-29T07:06:20;96676.75;;;18.60;56.06
9525;BME280;15940;48.734;9.112;2023-05-29T07:08:47;96675.28;;;18.59;54.04
9525;BME280;15940;48.734;9.112;2023-05-29T07:11:14;96671.81;;;18.79;53.36
9525;BME280;15940;48.734;9.112;2023-05-29T07:13:42;96686.31;;;18.88;55.04
9525;BME280;15940;48.734;9.112;2023-05-29T07:16:09;96683.66;;;18.74;52.19
9525;BME280;15940;48.734;9.112;2023-05-29T07:18:36;96685.59;;;18.95;54.28
9525;BME280;15940;48.734;9.112;2023-05-29T07:21:03;96683.88;;;19.05;55.45
9525;BME280;15940;48.734;9.112;2023-05-29T07:23:31;96685.22;;;19.19;54.45
9525;BME280;15940;48.734;9.112;2023-05-29T07:25:58;96681.59;;;19.32;54.59
9525;BME280;15940;48.734;9.112;2023-05-29T07:28:25;96682.78;;;19.44;54.27
9525;BME280;15940;48.734;9.112;2023-05-29T07:30:53;96680.81;;;19.52;52.59
9525;BME280;15940;48.734;9.112;2023-05-29T07:33:20;96688.19;;;19.65;51.37
9525;BME280;15940;48.734;9.112;2023-05-29T07:35:47;96686.34;;;19.67;50.59
9525;BME280;15940;48.734;9.112;2023-05-29T07:38:14;96684.88;;;19.66;52.08
9525;BME280;15940;48.734;9.112;2023-05-29T07:40:41;96684.03;;;19.87;52.50
9525;BME280;15940;48.734;9.112;2023-05-29T07:43:08;96686.84;;;20.10;52.11
9525;BME280;15940;48.734;9.112;2023-05-29T07:45:35;96686.28;;;20.11;51.84
9525;BME280;15940;48.734;9.112;2023-05-29T07:48:04;96692.72;;;20.21;51.27
9525;BME280;15940;48.734;9.112;2023-05-29T07:50:31;96690.00;;;20.29;51.77
9525;BME280;15940;48.734;9.112;2023-05-29T07:52:59;96693.50;;;20.37;53.92
9525;BME280;15940;48.734;9.112;2023-05-29T07:55:26;96690.72;;;20.37;52.47
9525;BME280;15940;48.734;9.112;2023-05-29T07:57:53;96697.53;;;20.51;50.88
9525;BME280;15940;48.734;9.112;2023-05-29T08:00:20;96693.69;;;20.54;51.12
9525;BME280;15940;48.734;9.112;2023-05-29T08:02:47;96695.88;;;20.64;50.26
9525;BME280;15940;48.734;9.112;2023-05-29T08:05:15;96697.16;;;20.55;52.54
9525;BME280;15940;48.734;9.112;2023-05-29T08:07:42;96700.84;;;20.50;50.74
9525;BME280;15940;48.734;9.112;2023-05-29T08:10:09;96692.59;;;20.58;52.14
9525;BME280;15940;48.734;9.112;2023-05-29T08:12:36;96698.63;;;20.64;50.80
9525;BME280;15940;48.734;9.112;2023-05-29T08:15:04;96695.72;;;20.77;52.25
9525;BME280;15940;48.734;9.112;2023-05-29T08:17:31;96695.31;;;20.88;51.45
9525;BME280;15940;48.734;9.112;2023-05-29T08:19:58;96697.13;;;21.08;50.07
9525;BME280;15940;48.734;9.112;2023-05-29T08:22:29;96699.69;;;21.14;49.98
9525;BME280;15940;48.734;9.112;2023-05-29T08:24:56;96697.47;;;21.28;48.00
9525;BME280;15940;48.734;9.112;2023-05-29T08:27:23;96697.28;;;21.33;49.67
9525;BME280;15940;48.734;9.112;2023-05-29T08:29:50;96703.44;;;21.57;49.20
9525;BME280;15940;48.734;9.112;2023-05-29T08:32:17;96700.69;;;21.49;46.50
9525;BME280;15940;48.734;9.112;2023-05-29T08:34:44;96698.31;;;21.53;47.62
9525;BME280;15940;48.734;9.112;2023-05-29T08:37:12;96696.75;;;21.75;48.26
9525;BME280;15940;48.734;9.112;2023-05-29T08:39:40;96691.88;;;21.91;49.66
9525;BME280;15940;48.734;9.112;2023-05-29T08:42:12;96694.63;;;21.99;46.83
9525;BME280;15940;48.734;9.112;2023-05-29T08:44:40;96695.94;;;21.90;48.07
9525;BME280;15940;48.734;9.112;2023-05-29T08:47:10;96697.84;;;22.12;47.20
9525;BME280;15940;48.734;9.112;2023-05-29T08:49:43;96690.44;;;22.22;47.12
9525;BME280;15940;48.734;9.112;2023-05-29T08:52:16;96696.84;;;22.25;45.52
9525;BME280;15940;48.734;9.112;2023-05-29T08:54:45;96700.91;;;22.24;47.51
9525;BME280;15940;48.734;9.112;2023-05-29T08:57:12;96697.53;;;22.33;45.36
9525;BME280;15940;48.734;9.112;2023-05-29T08:59:42;96701.28;;;22.45;46.68
9525;BME280;15940;48.734;9.112;2023-05-29T09:02:11;96696.88;;;22.50;43.20
9525;BME280;15940;48.734;9.112;2023-05-29T09:04:38;96706.59;;;22.51;45.21
9525;BME280;15940;48.734;9.112;2023-05-29T09:07:07;96703.22;;;22.60;44.30
9525;BME280;15940;48.734;9.112;2023-05-29T09:09:34;96708.34;;;22.64;46.95
9525;BME280;15940;48.734;9.112;2023-05-29T09:12:04;96704.13;;;22.63;46.80
9525;BME280;15940;48.734;9.112;2023-05-29T09:14:35;96698.31;;;22.76;44.61
9525;BME280;15940;48.734;9.112;2023-05-29T09:17:04;96701.78;;;22.84;45.04
9525;BME280;15940;48.734;9.112;2023-05-29T09:19:31;96702.19;;;22.98;45.82
9525;BME280;15940;48.734;9.112;2023-05-29T09:22:03;96702.44;;;23.09;45.91
9525;BME280;15940;48.734;9.112;2023-05-29T09:24:32;96699.69;;;23.27;46.20
9525;BME280;15940;48.734;9.112;2023-05-29T09:26:59;96712.13;;;23.35;45.66
9525;BME280;15940;48.734;9.112;2023-05-29T09:29:31;96710.25;;;23.38;46.04
9525;BME280;15940;48.734;9.112;2023-05-29T09:31:58;96715.13;;;23.47;44.74
9525;BME280;15940;48.734;9.112;2023-05-29T09:34:25;96713.56;;;23.54;44.36
9525;BME280;15940;48.734;9.112;2023-05-29T09:36:53;96710.09;;;23.71;47.59
9525;BME280;15940;48.734;9.112;2023-05-29T09:39:22;96713.81;;;23.83;44.01
9525;BME280;15940;48.734;9.112;2023-05-29T09:41:49;96717.59;;;23.87;42.51
9525;BME280;15940;48.734;9.112;2023-05-29T09:44:16;96713.44;;;23.96;47.06
9525;BME280;15940;48.734;9.112;2023-05-29T09:46:44;96712.25;;;23.89;42.81
9525;BME280;15940;48.734;9.112;2023-05-29T09:49:15;96719.97;;;23.91;45.15
9525;BME280;15940;48.734;9.112;2023-05-29T09:51:42;96711.41;;;23.97;44.56
9525;BME280;15940;48.734;9.112;2023-05-29T09:54:15;96718.88;;;24.04;45.26
9525;BME280;15940;48.734;9.112;2023-05-29T09:56:43;96712.81;;;24.15;45.30
9525;BME280;15940;48.734;9.112;2023-05-29T09:59:12;96711.72;;;24.28;47.83
9525;BME280;15940;48.734;9.112;2023-05-29T10:01:41;96707.72;;;24.38;45.95
9525;BME280;15940;48.734;9.112;2023-05-29T10:04:11;96716.63;;;24.46;44.51
9525;BME280;15940;48.734;9.112;2023-05-29T10:06:44;96703.41;;;24.55;44.47
9525;BME280;15940;48.734;9.112;2023-05-29T10:09:13;96700.53;;;24.82;44.89
9525;BME280;15940;48.734;9.112;2023-05-29T10:11:43;96705.22;;;24.79;44.86
9525;BME280;15940;48.734;9.112;2023-05-29T10:14:16;96704.81;;;24.83;43.89
9525;BME280;15940;48.734;9.112;2023-05-29T10:16:46;96705.81;;;24.87;41.94
9525;BME280;15940;48.734;9.112;2023-05-29T10:19:21;96704.63;;;24.81;42.92
9525;BME280;15940;48.734;9.112;2023-05-29T10:21:53;96706.41;;;24.86;44.31
9525;BME280;15940;48.734;9.112;2023-05-29T10:24:22;96704.06;;;24.92;43.06
9525;BME280;15940;48.734;9.112;2023-05-29T10:26:50;96698.28;;;25.07;43.87
9525;BME280;15940;48.734;9.112;2023-05-29T10:29:24;96691.28;;;25.06;42.39
9525;BME280;15940;48.734;9.112;2023-05-29T10:32:07;96691.44;;;25.08;42.01
9525;BME280;15940;48.734;9.112;2023-05-29T10:34:47;96684.88;;;25.13;44.83
9525;BME280;15940;48.734;9.112;2023-05-29T10:37:27;96687.44;;;25.01;43.02
9525;BME280;15940;48.734;9.112;2023-05-29T10:40:04;96675.66;;;25.11;39.47
9525;BME280;15940;48.734;9.112;2023-05-29T10:42:44;96684.44;;;25.17;40.01
9525;BME280;15940;48.734;9.112;2023-05-29T10:45:48;96671.63;;;25.21;39.94
9525;BME280;15940;48.734;9.112;2023-05-29T10:48:39;96670.28;;;25.13;41.15
9525;BME280;15940;48.734;9.112;2023-05-29T10:53:53;96672.19;;;25.20;41.46
9525;BME280;15940;48.734;9.112;2023-05-29T10:56:28;96667.94;;;25.19;43.09
9525;BME280;15940;48.734;9.112;2023-05-29T10:58:58;96672.63;;;25.35;40.48
9525;BME280;15940;48.734;9.112;2023-05-29T11:01:28;96669.84;;;25.55;42.20
9525;BME280;15940;48.734;9.112;2023-05-29T11:04:28;96678.47;;;25.49;38.16
9525;BME280;15940;48.734;9.112;2023-05-29T11:06:59;96664.28;;;25.55;40.85
9525;BME280;15940;48.734;9.112;2023-05-29T11:09:29;96657.16;;;25.52;40.74
9525;BME280;15940;48.734;9.112;2023-05-29T11:12:12;96662.94;;;25.66;40.04
9525;BME280;15940;48.734;9.112;2023-05-29T11:14:46;96664.41;;;25.76;40.45
9525;BME280;15940;48.734;9.112;2023-05-29T11:17:42;96672.00;;;25.66;38.98
9525;BME280;15940;48.734;9.112;2023-05-29T11:20:23;96671.16;;;25.73;37.32
9525;BME280;15940;48.734;9.112;2023-05-29T11:23:02;96674.50;;;25.81;38.43
9525;BME280;15940;48.734;9.112;2023-05-29T11:25:35;96667.75;;;25.84;38.11
9525;BME280;15940;48.734;9.112;2023-05-29T11:28:04;96672.28;;;25.89;37.71
9525;BME280;15940;48.734;9.112;2023-05-29T11:30:45;96669.97;;;25.76;39.38
9525;BME280;15940;48.734;9.112;2023-05-29T11:33:35;96673.03;;;25.80;38.38
9525;BME280;15940;48.734;9.112;2023-05-29T11:36:06;96673.19;;;25.82;40.62
9525;BME280;15940;48.734;9.112;2023-05-29T11:38:37;96664.88;;;25.73;37.49
9525;BME280;15940;48.734;9.112;2023-05-29T11:41:04;96662.53;;;25.79;38.60
9525;BME280;15940;48.734;9.112;2023-05-29T11:43:31;96659.19;;;25.71;37.17
9525;BME280;15940;48.734;9.112;2023-05-29T11:45:58;96674.50;;;25.72;38.51
9525;BME280;15940;48.734;9.112;2023-05-29T11:48:25;96672.16;;;25.68;38.97
9525;BME280;15940;48.734;9.112;2023-05-29T11:50:53;96669.69;;;25.62;39.40
9525;BME280;15940;48.734;9.112;2023-05-29T11:53:20;96664.16;;;25.53;41.00
9525;BME280;15940;48.734;9.112;2023-05-29T11:55:48;96663.53;;;25.64;39.04
9525;BME280;15940;48.734;9.112;2023-05-29T11:58:16;96664.16;;;25.53;35.32
9525;BME280;15940;48.734;9.112;2023-05-29T12:00:43;96660.06;;;25.54;38.14
9525;BME280;15940;48.734;9.112;2023-05-29T12:03:12;96675.53;;;25.57;38.76
9525;BME280;15940;48.734;9.112;2023-05-29T12:05:47;96666.31;;;25.74;41.08
9525;BME280;15940;48.734;9.112;2023-05-29T12:08:21;96664.00;;;25.80;36.78
9525;BME280;15940;48.734;9.112;2023-05-29T12:10:51;96669.06;;;25.93;38.89
9525;BME280;15940;48.734;9.112;2023-05-29T12:13:19;96670.66;;;26.06;35.51
9525;BME280;15940;48.734;9.112;2023-05-29T12:15:48;96672.50;;;26.13;37.55
9525;BME280;15940;48.734;9.112;2023-05-29T12:18:15;96657.06;;;26.00;34.96
9525;BME280;15940;48.734;9.112;2023-05-29T12:20:42;96675.03;;;25.99;35.60
9525;BME280;15940;48.734;9.112;2023-05-29T12:23:10;96665.25;;;25.98;36.03
9525;BME280;15940;48.734;9.112;2023-05-29T12:25:38;96669.50;;;25.89;34.05
9525;BME280;15940;48.734;9.112;2023-05-29T12:28:06;96662.50;;;25.88;38.93
9525;BME280;15940;48.734;9.112;2023-05-29T12:30:37;96662.19;;;25.94;36.11
9525;BME280;15940;48.734;9.112;2023-05-29T12:33:06;96659.44;;;25.84;36.15
9525;BME280;15940;48.734;9.112;2023-05-29T12:35:33;96671.94;;;26.05;33.11
9525;BME280;15940;48.734;9.112;2023-05-29T12:38:01;96669.03;;;26.03;32.76
9525;BME280;15940;48.734;9.112;2023-05-29T12:40:30;96666.69;;;26.09;34.44
9525;BME280;15940;48.734;9.112;2023-05-29T12:43:01;96661.72;;;26.07;35.41
9525;BME280;15940;48.734;9.112;2023-05-29T12:45:32;96664.34;;;26.05;34.02
9525;BME280;15940;48.734;9.112;2023-05-29T12:48:01;96671.06;;;26.02;36.17
9525;BME280;15940;48.734;9.112;2023-05-29T12:50:29;96680.44;;;26.07;35.69
9525;BME280;15940;48.734;9.112;2023-05-29T12:52:58;96671.38;;;26.06;34.94
9525;BME280;15940;48.734;9.112;2023-05-29T12:55:27;96677.94;;;26.01;32.91
9525;BME280;15940;48.734;9.112;2023-05-29T12:57:54;96671.25;;;25.95;33.85
9525;BME280;15940;48.734;9.112;2023-05-29T13:00:22;96674.59;;;25.93;33.95
9525;BME280;15940;48.734;9.112;2023-05-29T13:02:51;96676.34;;;25.98;33.22
9525;BME280;15940;48.734;9.112;2023-05-29T13:05:18;96672.84;;;25.98;35.61
9525;BME280;15940;48.734;9.112;2023-05-29T13:07:48;96659.94;;;26.12;35.03
9525;BME280;15940;48.734;9.112;2023-05-29T13:10:16;96665.47;;;26.22;35.90
9525;BME280;15940;48.734;9.112;2023-05-29T13:12:43;96660.97;;;26.16;31.97
9525;BME280;15940;48.734;9.112;2023-05-29T13:15:13;96670.28;;;26.21;34.50
9525;BME280;15940;48.734;9.112;2023-05-29T13:17:41;96656.66;;;26.35;30.10
9525;BME280;15940;48.734;9.112;2023-05-29T13:20:12;96653.44;;;26.29;29.44
9525;BME280;15940;48.734;9.112;2023-05-29T13:22:41;96655.81;;;26.23;32.95
9525;BME280;15940;48.734;9.112;2023-05-29T13:25:10;96654.88;;;26.39;33.81
9525;BME280;15940;48.734;9.112;2023-05-29T13:27:40;96664.97;;;26.44;31.17
9525;BME280;15940;48.734;9.112;2023-05-29T13:30:09;96662.78;;;26.33;31.55